createdAt,value
2022-12-25T00:02:30.875Z,2.11
2022-12-25T00:07:34.378Z,2.08
2022-12-25T00:12:38.887Z,2.07
2022-12-25T00:17:43.945Z,2.09
2022-12-25T00:22:47.774Z,2.11
2022-12-25T00:27:51.091Z,2.09
2022-12-25T00:32:54.371Z,2.06
2022-12-25T00:37:57.603Z,2.03
2022-12-25T00:43:00.904Z,1.97
2022-12-25T00:48:05.067Z,1.95
2022-12-25T00:53:08.372Z,1.97
2022-12-25T00:58:11.628Z,2.06
2022-12-25T01:03:15.461Z,2.13
2022-12-25T01:08:18.752Z,2.16
2022-12-25T01:13:22.069Z,2.27
2022-12-25T01:18:26.776Z,2.38
2022-12-25T01:23:30.078Z,2.42
2022-12-25T01:28:33.418Z,2.43
2022-12-25T01:33:36.734Z,2.48
2022-12-25T01:38:40.006Z,2.50
2022-12-25T01:44:19.019Z,2.47
2022-12-25T01:49:26.186Z,2.52
2022-12-25T01:54:56.192Z,2.53
2022-12-25T02:00:01.303Z,2.56
2022-12-25T02:05:12.521Z,2.56
2022-12-25T02:10:15.903Z,2.52
2022-12-25T02:15:22.623Z,2.50
2022-12-25T02:20:28.966Z,2.54
2022-12-25T02:26:06.242Z,2.57
2022-12-25T02:31:20.409Z,2.51
2022-12-25T02:36:29.177Z,2.52
2022-12-25T02:41:38.982Z,2.55
2022-12-25T02:47:03.358Z,2.53
2022-12-25T02:52:33.316Z,2.48
2022-12-25T02:58:05.922Z,2.45
2022-12-25T03:03:30.004Z,2.45
2022-12-25T03:08:41.751Z,2.51
2022-12-25T03:13:49.974Z,2.56
2022-12-25T03:18:56.157Z,2.65
2022-12-25T03:24:20.853Z,2.72
2022-12-25T03:29:52.391Z,2.80
2022-12-25T03:35:23.405Z,2.86
2022-12-25T03:40:52.766Z,2.82
2022-12-25T03:46:24.023Z,2.84
2022-12-25T03:51:51.298Z,2.83
2022-12-25T03:57:14.695Z,2.76
2022-12-25T04:02:37.211Z,2.72
2022-12-25T04:07:59.348Z,2.66
2022-12-25T04:13:21.402Z,2.61
2022-12-25T04:18:43.439Z,2.56
2022-12-25T04:24:05.509Z,2.51
2022-12-25T04:29:27.718Z,2.46
2022-12-25T04:34:49.883Z,2.48
2022-12-25T04:39:53.154Z,2.48
2022-12-25T04:44:56.477Z,2.49
2022-12-25T04:49:59.717Z,2.49
2022-12-25T04:55:04.293Z,2.51
2022-12-25T05:00:08.763Z,2.51
2022-12-25T05:05:12.180Z,2.54
2022-12-25T05:10:15.491Z,2.58
2022-12-25T05:15:18.785Z,2.63
2022-12-25T05:20:22.008Z,2.70
2022-12-25T05:25:25.326Z,2.74
2022-12-25T05:30:28.557Z,2.73
2022-12-25T05:35:32.530Z,2.73
2022-12-25T05:40:40.315Z,2.80
2022-12-25T05:45:43.670Z,2.88
2022-12-25T05:50:46.989Z,2.96
2022-12-25T05:55:50.322Z,3.00
2022-12-25T06:00:53.656Z,2.96
2022-12-25T06:05:58.031Z,2.86
2022-12-25T06:11:06.117Z,2.79
2022-12-25T06:16:12.566Z,2.79
2022-12-25T06:21:16.683Z,2.82
2022-12-25T06:26:20.711Z,2.83
2022-12-25T06:31:25.127Z,2.83
2022-12-25T06:36:29.779Z,2.86
2022-12-25T06:41:33.176Z,2.88
2022-12-25T06:46:36.606Z,2.92
2022-12-25T06:51:39.939Z,2.92
2022-12-25T06:56:43.222Z,2.88
2022-12-25T07:01:49.023Z,2.93
2022-12-25T07:06:53.106Z,3.00
2022-12-25T07:12:04.608Z,3.06
2022-12-25T07:17:08.363Z,3.10
2022-12-25T07:22:11.668Z,3.09
2022-12-25T07:27:14.994Z,3.08
2022-12-25T07:32:18.741Z,3.12
2022-12-25T07:37:22.451Z,3.17
2022-12-25T07:42:25.816Z,3.22
2022-12-25T07:47:29.668Z,3.33
2022-12-25T07:52:43.058Z,3.47
2022-12-25T07:57:46.850Z,3.55
2022-12-25T08:02:51.473Z,3.65
2022-12-25T08:07:57.962Z,3.79
2022-12-25T08:13:01.703Z,3.96
2022-12-25T08:18:05.319Z,4.07
2022-12-25T08:23:08.855Z,4.15
2022-12-25T08:28:12.408Z,4.24
2022-12-25T08:33:15.683Z,4.34
2022-12-25T08:38:19.004Z,4.43
2022-12-25T08:43:22.953Z,4.54
2022-12-25T08:48:26.451Z,4.65
2022-12-25T08:53:30.510Z,4.74
2022-12-25T08:58:33.967Z,4.83
2022-12-25T09:03:37.594Z,4.94
2022-12-25T09:08:48.117Z,5.03
2022-12-25T09:13:53.223Z,5.12
2022-12-25T09:19:00.532Z,5.22
2022-12-25T09:24:05.640Z,5.30
2022-12-25T09:29:09.394Z,5.35
2022-12-25T09:34:18.810Z,5.41
2022-12-25T09:39:23.797Z,5.61
2022-12-25T09:44:33.539Z,5.92
2022-12-25T09:49:59.289Z,6.18
2022-12-25T09:55:06.673Z,6.33
2022-12-25T10:00:22.397Z,6.36
2022-12-25T10:05:36.200Z,6.15
2022-12-25T10:10:51.785Z,5.91
2022-12-25T10:16:29.488Z,5.68
2022-12-25T10:21:33.654Z,5.40
2022-12-25T10:26:37.393Z,5.24
2022-12-25T10:31:42.319Z,5.15
2022-12-25T10:36:46.821Z,5.17
2022-12-25T10:42:27.285Z,5.18
2022-12-25T10:47:34.805Z,5.26
2022-12-25T10:52:52.654Z,5.35
2022-12-25T10:57:58.382Z,5.28
2022-12-25T11:03:02.526Z,5.31
2022-12-25T11:08:22.194Z,5.32
2022-12-25T11:13:28.458Z,5.25
2022-12-25T11:18:53.142Z,5.17
2022-12-25T11:24:02.957Z,5.19
2022-12-25T11:29:22.571Z,5.18
2022-12-25T11:34:34.203Z,5.15
2022-12-25T11:39:42.300Z,5.07
2022-12-25T11:44:56.569Z,4.96
2022-12-25T11:50:06.902Z,4.92
2022-12-25T11:55:37.639Z,4.88
2022-12-25T12:00:43.712Z,4.78
2022-12-25T12:06:02.517Z,4.71
2022-12-25T12:11:22.233Z,4.73
2022-12-25T12:16:29.994Z,4.67
2022-12-25T12:21:33.557Z,4.65
2022-12-25T12:26:41.156Z,4.68
2022-12-25T12:31:49.119Z,4.76
2022-12-25T12:36:59.682Z,4.74
2022-12-25T12:42:12.135Z,4.69
2022-12-25T12:47:43.247Z,4.65
2022-12-25T12:52:48.835Z,4.59
2022-12-25T12:57:59.458Z,4.59
2022-12-25T13:03:35.064Z,4.67
2022-12-25T13:09:01.940Z,4.45
2022-12-25T13:14:05.418Z,4.41
2022-12-25T13:19:14.758Z,4.42
2022-12-25T13:24:24.436Z,4.44
2022-12-25T13:29:33.187Z,4.53
2022-12-25T13:34:38.835Z,4.61
2022-12-25T13:39:50.519Z,4.66
2022-12-25T13:44:56.393Z,4.66
2022-12-25T13:50:14.178Z,4.66
2022-12-25T13:55:20.646Z,4.62
2022-12-25T14:00:31.726Z,4.51
2022-12-25T14:05:42.670Z,4.35
2022-12-25T14:10:52.829Z,4.22
2022-12-25T14:15:58.802Z,4.13
2022-12-25T14:21:16.063Z,4.03
2022-12-25T14:26:27.992Z,3.95
2022-12-25T14:31:33.466Z,3.89
2022-12-25T14:36:37.907Z,3.86
2022-12-25T14:41:42.459Z,3.84
2022-12-25T14:46:45.760Z,3.87
2022-12-25T14:51:49.699Z,3.86
2022-12-25T14:56:56.859Z,3.82
2022-12-25T15:02:03.681Z,3.81
2022-12-25T15:07:28.301Z,3.80
2022-12-25T15:12:31.698Z,3.77
2022-12-25T15:17:37.049Z,3.74
2022-12-25T15:23:02.853Z,3.72
2022-12-25T15:28:08.039Z,3.69
2022-12-25T15:33:18.530Z,3.70
2022-12-25T15:38:22.730Z,3.70
2022-12-25T15:43:41.905Z,3.68
2022-12-25T15:48:45.337Z,3.63
2022-12-25T15:53:49.209Z,3.56
2022-12-25T15:58:52.831Z,3.53
2022-12-25T16:03:58.982Z,3.47
2022-12-25T16:09:02.374Z,3.44
2022-12-25T16:14:06.445Z,3.51
2022-12-25T16:19:09.745Z,3.56
2022-12-25T16:24:14.461Z,3.58
2022-12-25T16:29:18.471Z,3.62
2022-12-25T16:34:21.758Z,3.66
2022-12-25T16:39:25.492Z,3.68
2022-12-25T16:44:29.024Z,3.72
2022-12-25T16:49:32.630Z,3.68
2022-12-25T16:54:36.632Z,3.67
2022-12-25T16:59:40.043Z,3.68
2022-12-25T17:04:45.099Z,3.66
2022-12-25T17:09:49.982Z,3.63
2022-12-25T17:14:53.885Z,3.58
2022-12-25T17:19:57.924Z,3.55
2022-12-25T17:25:01.453Z,3.53
2022-12-25T17:30:05.561Z,3.49
2022-12-25T17:35:09.335Z,3.46
2022-12-25T17:40:13.241Z,3.45
2022-12-25T17:45:16.796Z,3.48
2022-12-25T17:50:20.132Z,3.51
2022-12-25T17:55:23.433Z,3.54
2022-12-25T18:00:27.092Z,3.60
2022-12-25T18:05:30.593Z,3.64
2022-12-25T18:10:43.969Z,3.66
2022-12-25T18:15:47.652Z,3.70
2022-12-25T18:20:53.485Z,3.72
2022-12-25T18:25:57.339Z,3.72
2022-12-25T18:31:01.339Z,3.72
2022-12-25T18:36:05.386Z,3.73
2022-12-25T18:41:11.087Z,3.77
2022-12-25T18:46:17.761Z,3.80
2022-12-25T18:51:21.360Z,3.84
2022-12-25T18:56:25.204Z,3.93
2022-12-25T19:01:28.970Z,3.94
2022-12-25T19:06:35.391Z,3.97
2022-12-25T19:11:46.186Z,3.96
2022-12-25T19:16:52.413Z,3.96
2022-12-25T19:21:57.878Z,3.96
2022-12-25T19:27:01.287Z,3.92
2022-12-25T19:32:04.899Z,3.91
2022-12-25T19:37:08.800Z,3.89
2022-12-25T19:42:14.026Z,3.90
2022-12-25T19:47:17.576Z,3.95
2022-12-25T19:52:21.048Z,3.95
2022-12-25T19:57:24.316Z,3.91
2022-12-25T20:02:27.759Z,3.86
2022-12-25T20:07:31.570Z,3.77
2022-12-25T20:12:35.153Z,3.73
2022-12-25T20:17:38.628Z,3.74
2022-12-25T20:22:42.020Z,3.74
2022-12-25T20:27:45.728Z,3.79
2022-12-25T20:32:50.771Z,3.89
2022-12-25T20:37:54.266Z,4.00
2022-12-25T20:42:57.570Z,4.08
2022-12-25T20:48:01.475Z,4.12
2022-12-25T20:53:05.090Z,4.14
2022-12-25T20:58:08.377Z,4.14
2022-12-25T21:03:12.321Z,4.14
2022-12-25T21:08:21.087Z,4.10
2022-12-25T21:13:26.743Z,4.03
2022-12-25T21:18:30.105Z,4.00
2022-12-25T21:23:35.792Z,3.99
2022-12-25T21:28:39.229Z,4.06
2022-12-25T21:33:51.710Z,4.09
2022-12-25T21:39:01.269Z,4.12
2022-12-25T21:44:05.518Z,4.14
2022-12-25T21:49:09.595Z,4.18
2022-12-25T21:54:14.065Z,4.20
2022-12-25T21:59:22.415Z,4.20
2022-12-25T22:04:26.064Z,4.21
2022-12-25T22:09:29.715Z,4.23
2022-12-25T22:14:59.359Z,4.29
2022-12-25T22:20:08.939Z,4.29
2022-12-25T22:25:15.166Z,4.28
2022-12-25T22:30:25.410Z,4.29
2022-12-25T22:35:28.720Z,4.27
2022-12-25T22:40:38.147Z,4.25
2022-12-25T22:45:41.577Z,4.26
2022-12-25T22:50:44.917Z,4.25
2022-12-25T22:55:49.812Z,4.25
2022-12-25T23:00:53.252Z,4.31
2022-12-25T23:05:57.430Z,4.33
2022-12-25T23:11:05.950Z,4.37
2022-12-25T23:16:14.797Z,4.37
2022-12-25T23:21:37.290Z,4.39
2022-12-25T23:26:40.575Z,4.42
2022-12-25T23:31:44.274Z,4.39
2022-12-25T23:36:47.959Z,4.40
2022-12-25T23:41:51.827Z,4.45
2022-12-25T23:46:55.420Z,4.48
2022-12-25T23:51:58.800Z,4.49
2022-12-25T23:57:02.209Z,4.51
